sensor_id;sensor_type;location;lat;lon;timestamp;P1;durP1;ratioP1;P2;durP2;ratioP2
19691;SDS011;42748;50.016;19.890;2023-03-09T00:00:17;24.35;;;13.30;;
19691;SDS011;42748;50.016;19.890;2023-03-09T00:07:24;30.27;;;14.60;;
19691;SDS011;42748;50.016;19.890;2023-03-09T00:09:51;31.27;;;15.73;;
19691;SDS011;42748;50.016;19.890;2023-03-09T00:12:19;23.90;;;14.27;;
19691;SDS011;42748;50.016;19.890;2023-03-09T00:14:46;26.75;;;14.10;;
19691;SDS011;42748;50.016;19.890;2023-03-09T00:17:13;27.70;;;13.90;;
19691;SDS011;42748;50.016;19.890;2023-03-09T00:26:40;26.40;;;12.95;;
19691;SDS011;42748;50.016;19.890;2023-03-09T00:29:10;27.17;;;13.85;;
19691;SDS011;42748;50.016;19.890;2023-03-09T00:31:39;25.30;;;13.93;;
19691;SDS011;42748;50.016;19.890;2023-03-09T00:38:33;28.35;;;14.13;;
19691;SDS011;42748;50.016;19.890;2023-03-09T00:41:02;32.10;;;15.18;;
19691;SDS011;42748;50.016;19.890;2023-03-09T00:43:30;26.55;;;14.85;;
19691;SDS011;42748;50.016;19.890;2023-03-09T00:45:57;25.77;;;14.65;;
19691;SDS011;42748;50.016;19.890;2023-03-09T00:52:53;26.05;;;14.75;;
19691;SDS011;42748;50.016;19.890;2023-03-09T00:55:21;27.35;;;13.65;;
19691;SDS011;42748;50.016;19.890;2023-03-09T00:57:48;26.45;;;13.57;;
19691;SDS011;42748;50.016;19.890;2023-03-09T01:00:15;24.80;;;13.88;;
19691;SDS011;42748;50.016;19.890;2023-03-09T01:07:11;25.48;;;13.38;;
19691;SDS011;42748;50.016;19.890;2023-03-09T01:09:39;27.52;;;13.70;;
19691;SDS011;42748;50.016;19.890;2023-03-09T01:12:06;26.70;;;14.75;;
19691;SDS011;42748;50.016;19.890;2023-03-09T01:14:34;27.95;;;14.88;;
19691;SDS011;42748;50.016;19.890;2023-03-09T01:17:01;29.73;;;14.68;;
19691;SDS011;42748;50.016;19.890;2023-03-09T01:19:29;27.20;;;14.43;;
19691;SDS011;42748;50.016;19.890;2023-03-09T01:21:59;28.90;;;14.93;;
19691;SDS011;42748;50.016;19.890;2023-03-09T01:24:26;26.80;;;14.20;;
19691;SDS011;42748;50.016;19.890;2023-03-09T01:26:54;23.50;;;13.60;;
19691;SDS011;42748;50.016;19.890;2023-03-09T01:29:22;29.13;;;14.23;;
19691;SDS011;42748;50.016;19.890;2023-03-09T01:31:50;25.15;;;13.88;;
19691;SDS011;42748;50.016;19.890;2023-03-09T01:34:17;24.50;;;13.93;;
19691;SDS011;42748;50.016;19.890;2023-03-09T01:36:45;23.98;;;13.32;;
19691;SDS011;42748;50.016;19.890;2023-03-09T01:39:13;22.02;;;13.30;;
19691;SDS011;42748;50.016;19.890;2023-03-09T01:41:40;24.95;;;13.82;;
19691;SDS011;42748;50.016;19.890;2023-03-09T01:44:11;22.33;;;13.20;;
19691;SDS011;42748;50.016;19.890;2023-03-09T01:49:26;24.80;;;13.25;;
19691;SDS011;42748;50.016;19.890;2023-03-09T01:52:03;23.85;;;12.82;;
19691;SDS011;42748;50.016;19.890;2023-03-09T01:57:24;21.33;;;12.68;;
19691;SDS011;42748;50.016;19.890;2023-03-09T02:00:06;21.75;;;12.20;;
19691;SDS011;42748;50.016;19.890;2023-03-09T02:02:52;22.67;;;12.45;;
19691;SDS011;42748;50.016;19.890;2023-03-09T02:05:31;24.70;;;12.65;;
19691;SDS011;42748;50.016;19.890;2023-03-09T02:08:07;22.95;;;13.00;;
19691;SDS011;42748;50.016;19.890;2023-03-09T02:10:40;22.25;;;12.95;;
19691;SDS011;42748;50.016;19.890;2023-03-09T02:13:16;20.95;;;12.38;;
19691;SDS011;42748;50.016;19.890;2023-03-09T02:15:48;21.52;;;13.18;;
19691;SDS011;42748;50.016;19.890;2023-03-09T02:18:15;23.65;;;12.80;;
19691;SDS011;42748;50.016;19.890;2023-03-09T02:29:15;23.05;;;14.05;;
19691;SDS011;42748;50.016;19.890;2023-03-09T02:31:45;25.63;;;13.82;;
19691;SDS011;42748;50.016;19.890;2023-03-09T02:38:10;30.33;;;16.95;;
19691;SDS011;42748;50.016;19.890;2023-03-09T02:40:40;30.30;;;16.17;;
19691;SDS011;42748;50.016;19.890;2023-03-09T02:43:13;29.10;;;15.88;;
19691;SDS011;42748;50.016;19.890;2023-03-09T02:45:45;27.33;;;15.65;;
19691;SDS011;42748;50.016;19.890;2023-03-09T02:48:13;26.05;;;14.98;;
19691;SDS011;42748;50.016;19.890;2023-03-09T02:50:41;31.08;;;14.77;;
19691;SDS011;42748;50.016;19.890;2023-03-09T02:53:08;31.05;;;14.82;;
19691;SDS011;42748;50.016;19.890;2023-03-09T02:55:35;24.25;;;13.68;;
19691;SDS011;42748;50.016;19.890;2023-03-09T02:58:05;20.38;;;12.18;;
19691;SDS011;42748;50.016;19.890;2023-03-09T03:00:33;24.00;;;12.30;;
19691;SDS011;42748;50.016;19.890;2023-03-09T03:03:00;18.90;;;10.18;;
19691;SDS011;42748;50.016;19.890;2023-03-09T03:05:29;18.88;;;10.70;;
19691;SDS011;42748;50.016;19.890;2023-03-09T03:07:56;17.90;;;10.73;;
19691;SDS011;42748;50.016;19.890;2023-03-09T03:10:24;17.42;;;10.13;;
19691;SDS011;42748;50.016;19.890;2023-03-09T03:12:51;17.48;;;10.18;;
19691;SDS011;42748;50.016;19.890;2023-03-09T03:15:18;16.98;;;9.88;;
19691;SDS011;42748;50.016;19.890;2023-03-09T03:17:46;15.57;;;9.88;;
19691;SDS011;42748;50.016;19.890;2023-03-09T03:20:13;17.27;;;9.27;;
19691;SDS011;42748;50.016;19.890;2023-03-09T03:22:44;12.32;;;7.65;;
19691;SDS011;42748;50.016;19.890;2023-03-09T03:25:13;13.23;;;8.15;;
19691;SDS011;42748;50.016;19.890;2023-03-09T03:27:46;12.57;;;7.63;;
19691;SDS011;42748;50.016;19.890;2023-03-09T03:30:13;11.52;;;7.07;;
19691;SDS011;42748;50.016;19.890;2023-03-09T03:32:43;13.00;;;7.03;;
19691;SDS011;42748;50.016;19.890;2023-03-09T03:35:13;12.88;;;7.18;;
19691;SDS011;42748;50.016;19.890;2023-03-09T03:37:43;12.70;;;6.95;;
19691;SDS011;42748;50.016;19.890;2023-03-09T03:40:11;10.70;;;6.80;;
19691;SDS011;42748;50.016;19.890;2023-03-09T03:42:41;9.30;;;6.60;;
19691;SDS011;42748;50.016;19.890;2023-03-09T03:45:10;10.70;;;6.80;;
19691;SDS011;42748;50.016;19.890;2023-03-09T03:47:38;11.38;;;6.65;;
19691;SDS011;42748;50.016;19.890;2023-03-09T03:50:06;11.20;;;6.47;;
19691;SDS011;42748;50.016;19.890;2023-03-09T03:52:41;11.23;;;6.70;;
19691;SDS011;42748;50.016;19.890;2023-03-09T03:55:08;10.75;;;6.95;;
19691;SDS011;42748;50.016;19.890;2023-03-09T03:57:36;10.50;;;6.88;;
19691;SDS011;42748;50.016;19.890;2023-03-09T04:00:05;11.68;;;7.07;;
19691;SDS011;42748;50.016;19.890;2023-03-09T04:02:40;10.82;;;6.88;;
19691;SDS011;42748;50.016;19.890;2023-03-09T04:05:15;9.80;;;6.85;;
19691;SDS011;42748;50.016;19.890;2023-03-09T04:07:46;12.45;;;7.53;;
19691;SDS011;42748;50.016;19.890;2023-03-09T04:10:13;11.05;;;7.22;;
19691;SDS011;42748;50.016;19.890;2023-03-09T04:12:44;13.10;;;7.72;;
19691;SDS011;42748;50.016;19.890;2023-03-09T04:15:11;10.13;;;7.35;;
19691;SDS011;42748;50.016;19.890;2023-03-09T04:17:38;11.68;;;7.03;;
19691;SDS011;42748;50.016;19.890;2023-03-09T04:20:06;9.65;;;6.88;;
19691;SDS011;42748;50.016;19.890;2023-03-09T04:22:35;13.10;;;6.32;;
19691;SDS011;42748;50.016;19.890;2023-03-09T04:25:02;11.80;;;6.13;;
19691;SDS011;42748;50.016;19.890;2023-03-09T04:27:29;8.93;;;5.43;;
19691;SDS011;42748;50.016;19.890;2023-03-09T04:30:04;6.85;;;4.75;;
19691;SDS011;42748;50.016;19.890;2023-03-09T04:32:33;11.40;;;5.30;;
19691;SDS011;42748;50.016;19.890;2023-03-09T04:35:05;7.68;;;5.00;;
19691;SDS011;42748;50.016;19.890;2023-03-09T04:37:36;9.07;;;5.60;;
19691;SDS011;42748;50.016;19.890;2023-03-09T04:40:03;7.95;;;5.55;;
19691;SDS011;42748;50.016;19.890;2023-03-09T04:42:33;11.07;;;5.68;;
19691;SDS011;42748;50.016;19.890;2023-03-09T04:45:01;9.93;;;5.93;;
19691;SDS011;42748;50.016;19.890;2023-03-09T04:47:29;12.02;;;6.05;;
19691;SDS011;42748;50.016;19.890;2023-03-09T04:49:57;11.70;;;6.25;;
19691;SDS011;42748;50.016;19.890;2023-03-09T04:52:26;10.43;;;6.35;;
19691;SDS011;42748;50.016;19.890;2023-03-09T04:54:54;13.15;;;6.82;;
19691;SDS011;42748;50.016;19.890;2023-03-09T04:57:22;10.30;;;5.78;;
19691;SDS011;42748;50.016;19.890;2023-03-09T04:59:49;10.07;;;5.95;;
19691;SDS011;42748;50.016;19.890;2023-03-09T05:02:17;9.63;;;6.07;;
19691;SDS011;42748;50.016;19.890;2023-03-09T05:04:46;12.32;;;5.43;;
19691;SDS011;42748;50.016;19.890;2023-03-09T05:07:14;7.57;;;4.93;;
19691;SDS011;42748;50.016;19.890;2023-03-09T05:09:41;7.82;;;5.15;;
19691;SDS011;42748;50.016;19.890;2023-03-09T05:12:10;9.35;;;5.28;;
19691;SDS011;42748;50.016;19.890;2023-03-09T05:14:39;9.55;;;4.60;;
19691;SDS011;42748;50.016;19.890;2023-03-09T05:17:06;10.90;;;5.13;;
19691;SDS011;42748;50.016;19.890;2023-03-09T05:19:34;8.63;;;4.93;;
19691;SDS011;42748;50.016;19.890;2023-03-09T05:26:29;8.20;;;5.10;;
19691;SDS011;42748;50.016;19.890;2023-03-09T05:28:56;8.13;;;4.97;;
19691;SDS011;42748;50.016;19.890;2023-03-09T05:31:24;8.55;;;5.60;;
19691;SDS011;42748;50.016;19.890;2023-03-09T05:33:54;10.18;;;5.90;;
19691;SDS011;42748;50.016;19.890;2023-03-09T05:36:22;10.25;;;5.70;;
19691;SDS011;42748;50.016;19.890;2023-03-09T05:38:54;7.88;;;5.30;;
19691;SDS011;42748;50.016;19.890;2023-03-09T05:41:22;10.48;;;5.75;;
19691;SDS011;42748;50.016;19.890;2023-03-09T05:43:57;9.15;;;5.88;;
19691;SDS011;42748;50.016;19.890;2023-03-09T05:46:25;8.55;;;5.45;;
19691;SDS011;42748;50.016;19.890;2023-03-09T05:48:53;11.35;;;5.68;;
19691;SDS011;42748;50.016;19.890;2023-03-09T05:51:21;8.57;;;5.32;;
19691;SDS011;42748;50.016;19.890;2023-03-09T05:53:51;11.00;;;5.60;;
19691;SDS011;42748;50.016;19.890;2023-03-09T05:56:18;9.43;;;5.28;;
19691;SDS011;42748;50.016;19.890;2023-03-09T05:58:48;9.07;;;5.25;;
19691;SDS011;42748;50.016;19.890;2023-03-09T06:01:26;8.90;;;5.15;;
19691;SDS011;42748;50.016;19.890;2023-03-09T06:04:11;10.25;;;5.63;;
19691;SDS011;42748;50.016;19.890;2023-03-09T06:06:42;8.57;;;5.05;;
19691;SDS011;42748;50.016;19.890;2023-03-09T06:09:09;9.13;;;5.10;;
19691;SDS011;42748;50.016;19.890;2023-03-09T06:11:37;9.63;;;5.35;;
19691;SDS011;42748;50.016;19.890;2023-03-09T06:14:05;9.50;;;5.22;;
19691;SDS011;42748;50.016;19.890;2023-03-09T06:16:37;8.02;;;4.78;;
19691;SDS011;42748;50.016;19.890;2023-03-09T06:19:05;8.00;;;5.00;;
19691;SDS011;42748;50.016;19.890;2023-03-09T06:21:34;9.50;;;4.95;;
19691;SDS011;42748;50.016;19.890;2023-03-09T06:24:02;8.27;;;4.72;;
19691;SDS011;42748;50.016;19.890;2023-03-09T06:26:29;7.65;;;4.70;;
19691;SDS011;42748;50.016;19.890;2023-03-09T06:29:02;7.72;;;4.50;;
19691;SDS011;42748;50.016;19.890;2023-03-09T06:31:32;8.65;;;4.95;;
19691;SDS011;42748;50.016;19.890;2023-03-09T06:33:59;8.18;;;4.65;;
19691;SDS011;42748;50.016;19.890;2023-03-09T06:36:27;7.72;;;4.28;;
19691;SDS011;42748;50.016;19.890;2023-03-09T06:38:54;9.13;;;4.90;;
19691;SDS011;42748;50.016;19.890;2023-03-09T06:41:27;7.55;;;4.78;;
19691;SDS011;42748;50.016;19.890;2023-03-09T06:44:16;8.00;;;4.40;;
19691;SDS011;42748;50.016;19.890;2023-03-09T06:46:45;9.45;;;4.45;;
19691;SDS011;42748;50.016;19.890;2023-03-09T06:49:15;8.82;;;5.13;;
19691;SDS011;42748;50.016;19.890;2023-03-09T06:51:44;9.32;;;5.22;;
19691;SDS011;42748;50.016;19.890;2023-03-09T06:54:13;10.15;;;5.50;;
19691;SDS011;42748;50.016;19.890;2023-03-09T06:56:49;9.85;;;5.10;;
19691;SDS011;42748;50.016;19.890;2023-03-09T06:59:19;9.30;;;4.97;;
19691;SDS011;42748;50.016;19.890;2023-03-09T07:01:46;7.95;;;4.70;;
19691;SDS011;42748;50.016;19.890;2023-03-09T07:04:13;7.80;;;4.80;;
19691;SDS011;42748;50.016;19.890;2023-03-09T07:06:40;10.68;;;4.85;;
19691;SDS011;42748;50.016;19.890;2023-03-09T07:09:08;9.23;;;4.70;;
19691;SDS011;42748;50.016;19.890;2023-03-09T07:11:35;8.63;;;4.43;;
19691;SDS011;42748;50.016;19.890;2023-03-09T07:14:02;8.60;;;4.93;;
19691;SDS011;42748;50.016;19.890;2023-03-09T07:16:29;9.98;;;5.28;;
19691;SDS011;42748;50.016;19.890;2023-03-09T07:18:57;7.53;;;4.80;;
19691;SDS011;42748;50.016;19.890;2023-03-09T07:21:24;8.75;;;4.85;;
19691;SDS011;42748;50.016;19.890;2023-03-09T07:23:51;7.72;;;4.40;;
19691;SDS011;42748;50.016;19.890;2023-03-09T07:26:18;8.95;;;4.28;;
19691;SDS011;42748;50.016;19.890;2023-03-09T07:28:47;8.15;;;4.90;;
19691;SDS011;42748;50.016;19.890;2023-03-09T07:31:14;8.73;;;4.72;;
19691;SDS011;42748;50.016;19.890;2023-03-09T07:33:42;8.25;;;4.80;;
19691;SDS011;42748;50.016;19.890;2023-03-09T07:36:09;7.68;;;4.78;;
19691;SDS011;42748;50.016;19.890;2023-03-09T07:38:36;8.48;;;4.75;;
19691;SDS011;42748;50.016;19.890;2023-03-09T07:41:03;6.90;;;4.32;;
19691;SDS011;42748;50.016;19.890;2023-03-09T07:43:30;6.75;;;4.30;;
19691;SDS011;42748;50.016;19.890;2023-03-09T07:46:06;8.35;;;4.63;;
19691;SDS011;42748;50.016;19.890;2023-03-09T07:48:33;7.97;;;4.60;;
19691;SDS011;42748;50.016;19.890;2023-03-09T07:51:00;8.20;;;4.75;;
19691;SDS011;42748;50.016;19.890;2023-03-09T07:58:04;6.05;;;4.07;;
19691;SDS011;42748;50.016;19.890;2023-03-09T08:00:31;8.10;;;4.70;;
19691;SDS011;42748;50.016;19.890;2023-03-09T08:02:59;7.57;;;4.70;;
19691;SDS011;42748;50.016;19.890;2023-03-09T08:05:27;8.68;;;4.72;;
19691;SDS011;42748;50.016;19.890;2023-03-09T08:12:21;10.10;;;5.32;;
19691;SDS011;42748;50.016;19.890;2023-03-09T08:14:48;11.93;;;5.15;;
19691;SDS011;42748;50.016;19.890;2023-03-09T08:17:15;10.65;;;5.88;;
19691;SDS011;42748;50.016;19.890;2023-03-09T08:19:43;10.05;;;5.25;;
19691;SDS011;42748;50.016;19.890;2023-03-09T08:26:38;8.38;;;4.95;;
19691;SDS011;42748;50.016;19.890;2023-03-09T08:29:06;11.00;;;5.63;;
19691;SDS011;42748;50.016;19.890;2023-03-09T08:31:33;7.78;;;5.05;;
19691;SDS011;42748;50.016;19.890;2023-03-09T08:34:02;8.05;;;5.05;;
19691;SDS011;42748;50.016;19.890;2023-03-09T08:36:30;6.70;;;5.18;;
19691;SDS011;42748;50.016;19.890;2023-03-09T08:38:58;8.63;;;5.80;;
19691;SDS011;42748;50.016;19.890;2023-03-09T08:41:25;9.07;;;6.00;;
19691;SDS011;42748;50.016;19.890;2023-03-09T08:43:52;8.32;;;5.75;;
19691;SDS011;42748;50.016;19.890;2023-03-09T08:46:21;11.65;;;6.43;;
19691;SDS011;42748;50.016;19.890;2023-03-09T08:48:48;11.68;;;7.05;;
19691;SDS011;42748;50.016;19.890;2023-03-09T08:51:15;11.65;;;6.60;;
19691;SDS011;42748;50.016;19.890;2023-03-09T08:53:42;16.45;;;7.57;;
19691;SDS011;42748;50.016;19.890;2023-03-09T08:56:10;12.75;;;6.93;;
19691;SDS011;42748;50.016;19.890;2023-03-09T08:58:38;12.98;;;7.40;;
19691;SDS011;42748;50.016;19.890;2023-03-09T09:01:06;11.73;;;7.40;;
19691;SDS011;42748;50.016;19.890;2023-03-09T09:03:35;11.27;;;6.93;;
19691;SDS011;42748;50.016;19.890;2023-03-09T09:06:05;11.38;;;6.70;;
19691;SDS011;42748;50.016;19.890;2023-03-09T09:08:36;12.73;;;6.70;;
19691;SDS011;42748;50.016;19.890;2023-03-09T09:11:04;11.65;;;6.35;;
19691;SDS011;42748;50.016;19.890;2023-03-09T09:13:35;9.38;;;5.55;;
19691;SDS011;42748;50.016;19.890;2023-03-09T09:16:04;11.48;;;6.15;;
19691;SDS011;42748;50.016;19.890;2023-03-09T09:18:33;10.93;;;5.40;;
19691;SDS011;42748;50.016;19.890;2023-03-09T09:21:12;8.40;;;5.15;;
19691;SDS011;42748;50.016;19.890;2023-03-09T09:23:41;13.00;;;5.13;;
19691;SDS011;42748;50.016;19.890;2023-03-09T09:26:09;8.40;;;4.55;;
19691;SDS011;42748;50.016;19.890;2023-03-09T09:28:42;8.30;;;4.75;;
19691;SDS011;42748;50.016;19.890;2023-03-09T09:31:14;7.82;;;4.72;;
19691;SDS011;42748;50.016;19.890;2023-03-09T09:33:46;8.23;;;4.43;;
19691;SDS011;42748;50.016;19.890;2023-03-09T09:36:14;7.32;;;4.45;;
19691;SDS011;42748;50.016;19.890;2023-03-09T09:38:43;7.10;;;4.18;;
19691;SDS011;42748;50.016;19.890;2023-03-09T09:43:46;7.63;;;4.32;;
19691;SDS011;42748;50.016;19.890;2023-03-09T09:46:15;5.72;;;4.03;;
19691;SDS011;42748;50.016;19.890;2023-03-09T09:48:45;5.63;;;3.90;;
19691;SDS011;42748;50.016;19.890;2023-03-09T09:56:49;9.40;;;4.70;;
19691;SDS011;42748;50.016;19.890;2023-03-09T09:59:23;8.60;;;4.07;;
19691;SDS011;42748;50.016;19.890;2023-03-09T10:11:19;6.88;;;4.22;;
19691;SDS011;42748;50.016;19.890;2023-03-09T10:14:38;10.50;;;5.30;;
19691;SDS011;42748;50.016;19.890;2023-03-09T10:16:54;13.25;;;6.20;;
19691;SDS011;42748;50.016;19.890;2023-03-09T10:19:34;11.68;;;6.35;;
19691;SDS011;42748;50.016;19.890;2023-03-09T10:22:14;11.30;;;6.07;;
19691;SDS011;42748;50.016;19.890;2023-03-09T10:24:47;9.93;;;5.75;;
19691;SDS011;42748;50.016;19.890;2023-03-09T10:32:56;8.65;;;4.93;;
19691;SDS011;42748;50.016;19.890;2023-03-09T10:41:48;9.18;;;4.97;;
19691;SDS011;42748;50.016;19.890;2023-03-09T10:44:15;8.00;;;5.20;;
19691;SDS011;42748;50.016;19.890;2023-03-09T10:49:29;8.82;;;5.25;;
19691;SDS011;42748;50.016;19.890;2023-03-09T10:54:30;11.75;;;6.57;;
19691;SDS011;42748;50.016;19.890;2023-03-09T10:56:59;10.98;;;6.80;;
19691;SDS011;42748;50.016;19.890;2023-03-09T10:59:27;13.25;;;8.00;;
19691;SDS011;42748;50.016;19.890;2023-03-09T11:01:57;13.57;;;8.45;;
19691;SDS011;42748;50.016;19.890;2023-03-09T11:04:29;18.27;;;9.38;;
19691;SDS011;42748;50.016;19.890;2023-03-09T11:07:05;15.52;;;8.95;;
19691;SDS011;42748;50.016;19.890;2023-03-09T11:12:18;16.88;;;9.75;;
19691;SDS011;42748;50.016;19.890;2023-03-09T11:14:55;16.13;;;9.25;;
19691;SDS011;42748;50.016;19.890;2023-03-09T11:17:35;20.42;;;10.85;;
19691;SDS011;42748;50.016;19.890;2023-03-09T11:22:46;20.30;;;11.88;;
19691;SDS011;42748;50.016;19.890;2023-03-09T11:25:17;19.88;;;12.77;;
19691;SDS011;42748;50.016;19.890;2023-03-09T11:28:05;24.65;;;13.40;;
19691;SDS011;42748;50.016;19.890;2023-03-09T11:30:57;23.98;;;13.50;;
19691;SDS011;42748;50.016;19.890;2023-03-09T11:33:27;24.15;;;14.55;;
19691;SDS011;42748;50.016;19.890;2023-03-09T11:35:56;23.60;;;13.60;;
19691;SDS011;42748;50.016;19.890;2023-03-09T11:42:53;28.60;;;15.00;;
19691;SDS011;42748;50.016;19.890;2023-03-09T11:45:31;28.48;;;15.88;;
19691;SDS011;42748;50.016;19.890;2023-03-09T11:48:04;27.63;;;15.57;;
19691;SDS011;42748;50.016;19.890;2023-03-09T11:50:58;26.33;;;14.95;;
19691;SDS011;42748;50.016;19.890;2023-03-09T11:57:59;18.02;;;10.93;;
19691;SDS011;42748;50.016;19.890;2023-03-09T12:00:37;16.33;;;8.93;;
19691;SDS011;42748;50.016;19.890;2023-03-09T12:03:14;13.77;;;7.90;;
19691;SDS011;42748;50.016;19.890;2023-03-09T12:05:49;11.68;;;7.13;;
19691;SDS011;42748;50.016;19.890;2023-03-09T12:08:36;11.13;;;5.97;;
19691;SDS011;42748;50.016;19.890;2023-03-09T12:12:43;9.82;;;5.22;;
19691;SDS011;42748;50.016;19.890;2023-03-09T12:18:02;9.00;;;4.90;;
19691;SDS011;42748;50.016;19.890;2023-03-09T12:20:34;7.70;;;4.43;;
19691;SDS011;42748;50.016;19.890;2023-03-09T12:23:40;9.40;;;5.30;;
19691;SDS011;42748;50.016;19.890;2023-03-09T12:30:08;9.40;;;4.63;;
19691;SDS011;42748;50.016;19.890;2023-03-09T12:32:48;11.88;;;6.25;;
19691;SDS011;42748;50.016;19.890;2023-03-09T12:59:44;7.90;;;3.40;;
19691;SDS011;42748;50.016;19.890;2023-03-09T13:02:22;5.90;;;3.47;;
19691;SDS011;42748;50.016;19.890;2023-03-09T13:07:55;5.43;;;3.10;;
19691;SDS011;42748;50.016;19.890;2023-03-09T13:17:43;5.18;;;3.20;;
19691;SDS011;42748;50.016;19.890;2023-03-09T13:20:37;7.50;;;3.50;;
19691;SDS011;42748;50.016;19.890;2023-03-09T13:23:13;5.55;;;3.17;;
19691;SDS011;42748;50.016;19.890;2023-03-09T13:30:17;5.22;;;3.08;;
19691;SDS011;42748;50.016;19.890;2023-03-09T13:35:32;5.72;;;3.00;;
19691;SDS011;42748;50.016;19.890;2023-03-09T13:38:04;4.95;;;2.90;;
19691;SDS011;42748;50.016;19.890;2023-03-09T13:40:50;4.82;;;2.78;;
19691;SDS011;42748;50.016;19.890;2023-03-09T13:43:21;5.68;;;3.50;;
19691;SDS011;42748;50.016;19.890;2023-03-09T13:46:05;6.68;;;3.40;;
19691;SDS011;42748;50.016;19.890;2023-03-09T13:48:54;5.90;;;3.13;;
19691;SDS011;42748;50.016;19.890;2023-03-09T13:51:36;5.00;;;3.17;;
19691;SDS011;42748;50.016;19.890;2023-03-09T13:59:53;5.88;;;3.35;;
19691;SDS011;42748;50.016;19.890;2023-03-09T14:02:27;6.78;;;3.88;;
19691;SDS011;42748;50.016;19.890;2023-03-09T14:07:49;6.55;;;3.97;;
19691;SDS011;42748;50.016;19.890;2023-03-09T14:14:20;8.00;;;4.25;;
19691;SDS011;42748;50.016;19.890;2023-03-09T14:16:50;8.00;;;4.40;;
19691;SDS011;42748;50.016;19.890;2023-03-09T14:21:56;8.27;;;4.97;;
19691;SDS011;42748;50.016;19.890;2023-03-09T14:24:34;8.38;;;4.45;;
19691;SDS011;42748;50.016;19.890;2023-03-09T14:29:39;7.55;;;4.68;;
19691;SDS011;42748;50.016;19.890;2023-03-09T14:32:17;10.07;;;5.80;;
19691;SDS011;42748;50.016;19.890;2023-03-09T14:34:45;8.93;;;5.60;;
19691;SDS011;42748;50.016;19.890;2023-03-09T14:37:16;10.18;;;6.30;;
19691;SDS011;42748;50.016;19.890;2023-03-09T14:39:50;10.60;;;6.88;;
19691;SDS011;42748;50.016;19.890;2023-03-09T14:42:25;10.43;;;6.60;;
19691;SDS011;42748;50.016;19.890;2023-03-09T14:47:25;13.13;;;8.38;;
19691;SDS011;42748;50.016;19.890;2023-03-09T14:49:53;15.10;;;9.25;;
19691;SDS011;42748;50.016;19.890;2023-03-09T14:52:21;15.70;;;9.50;;
19691;SDS011;42748;50.016;19.890;2023-03-09T14:54:51;16.45;;;10.50;;
19691;SDS011;42748;50.016;19.890;2023-03-09T14:57:18;18.77;;;10.00;;
19691;SDS011;42748;50.016;19.890;2023-03-09T14:59:46;17.83;;;11.35;;
19691;SDS011;42748;50.016;19.890;2023-03-09T15:02:14;17.08;;;11.18;;
19691;SDS011;42748;50.016;19.890;2023-03-09T15:04:45;18.30;;;11.55;;
19691;SDS011;42748;50.016;19.890;2023-03-09T15:07:14;19.45;;;12.38;;
19691;SDS011;42748;50.016;19.890;2023-03-09T15:09:43;17.08;;;11.02;;
19691;SDS011;42748;50.016;19.890;2023-03-09T15:12:14;18.83;;;12.30;;
19691;SDS011;42748;50.016;19.890;2023-03-09T15:14:45;19.95;;;12.55;;
19691;SDS011;42748;50.016;19.890;2023-03-09T15:17:15;20.02;;;12.18;;
19691;SDS011;42748;50.016;19.890;2023-03-09T15:19:47;18.20;;;11.60;;
19691;SDS011;42748;50.016;19.890;2023-03-09T15:22:24;19.85;;;12.48;;
19691;SDS011;42748;50.016;19.890;2023-03-09T15:24:52;17.38;;;11.43;;
19691;SDS011;42748;50.016;19.890;2023-03-09T15:27:19;19.30;;;12.60;;
19691;SDS011;42748;50.016;19.890;2023-03-09T15:29:50;19.00;;;12.05;;
19691;SDS011;42748;50.016;19.890;2023-03-09T15:32:20;21.30;;;12.30;;
19691;SDS011;42748;50.016;19.890;2023-03-09T15:34:47;19.02;;;11.48;;
19691;SDS011;42748;50.016;19.890;2023-03-09T15:37:14;18.63;;;11.98;;
19691;SDS011;42748;50.016;19.890;2023-03-09T15:39:45;20.13;;;12.32;;
19691;SDS011;42748;50.016;19.890;2023-03-09T15:42:12;18.95;;;12.43;;
19691;SDS011;42748;50.016;19.890;2023-03-09T15:44:40;21.98;;;13.23;;
19691;SDS011;42748;50.016;19.890;2023-03-09T15:47:07;19.80;;;12.30;;
19691;SDS011;42748;50.016;19.890;2023-03-09T15:49:35;20.15;;;12.73;;
19691;SDS011;42748;50.016;19.890;2023-03-09T15:52:03;20.80;;;11.88;;
19691;SDS011;42748;50.016;19.890;2023-03-09T15:54:32;20.38;;;11.85;;
19691;SDS011;42748;50.016;19.890;2023-03-09T15:57:04;19.17;;;12.13;;
19691;SDS011;42748;50.016;19.890;2023-03-09T15:59:31;20.23;;;12.88;;
19691;SDS011;42748;50.016;19.890;2023-03-09T16:01:59;21.42;;;12.55;;
19691;SDS011;42748;50.016;19.890;2023-03-09T16:04:27;19.77;;;12.88;;
19691;SDS011;42748;50.016;19.890;2023-03-09T16:06:54;24.13;;;14.00;;
19691;SDS011;42748;50.016;19.890;2023-03-09T16:09:22;24.75;;;13.98;;
19691;SDS011;42748;50.016;19.890;2023-03-09T16:11:49;24.60;;;14.07;;
19691;SDS011;42748;50.016;19.890;2023-03-09T16:14:20;23.67;;;14.25;;
19691;SDS011;42748;50.016;19.890;2023-03-09T16:16:48;26.65;;;15.38;;
19691;SDS011;42748;50.016;19.890;2023-03-09T16:19:15;25.88;;;15.05;;
19691;SDS011;42748;50.016;19.890;2023-03-09T16:21:43;27.60;;;14.90;;
19691;SDS011;42748;50.016;19.890;2023-03-09T16:24:16;24.88;;;14.98;;
19691;SDS011;42748;50.016;19.890;2023-03-09T16:26:45;26.73;;;14.73;;
19691;SDS011;42748;50.016;19.890;2023-03-09T16:29:13;26.35;;;15.82;;
19691;SDS011;42748;50.016;19.890;2023-03-09T16:31:40;26.58;;;14.95;;
19691;SDS011;42748;50.016;19.890;2023-03-09T16:34:08;26.88;;;14.85;;
19691;SDS011;42748;50.016;19.890;2023-03-09T16:36:35;26.70;;;15.35;;
19691;SDS011;42748;50.016;19.890;2023-03-09T16:39:02;26.42;;;15.70;;
19691;SDS011;42748;50.016;19.890;2023-03-09T16:41:29;28.58;;;15.95;;
19691;SDS011;42748;50.016;19.890;2023-03-09T16:43:56;28.83;;;16.58;;
19691;SDS011;42748;50.016;19.890;2023-03-09T16:46:26;29.63;;;17.30;;
19691;SDS011;42748;50.016;19.890;2023-03-09T16:49:03;30.15;;;16.92;;
19691;SDS011;42748;50.016;19.890;2023-03-09T16:51:48;30.02;;;17.27;;
19691;SDS011;42748;50.016;19.890;2023-03-09T16:54:16;35.22;;;18.05;;
19691;SDS011;42748;50.016;19.890;2023-03-09T16:56:45;30.85;;;18.33;;
19691;SDS011;42748;50.016;19.890;2023-03-09T16:59:12;32.55;;;18.38;;
19691;SDS011;42748;50.016;19.890;2023-03-09T17:01:53;32.78;;;19.08;;
19691;SDS011;42748;50.016;19.890;2023-03-09T17:04:20;32.03;;;19.20;;
19691;SDS011;42748;50.016;19.890;2023-03-09T17:06:47;34.83;;;19.27;;
19691;SDS011;42748;50.016;19.890;2023-03-09T17:09:15;34.60;;;19.90;;
19691;SDS011;42748;50.016;19.890;2023-03-09T17:11:42;33.50;;;19.67;;
19691;SDS011;42748;50.016;19.890;2023-03-09T17:14:09;32.90;;;20.08;;
19691;SDS011;42748;50.016;19.890;2023-03-09T17:16:40;34.55;;;19.73;;
19691;SDS011;42748;50.016;19.890;2023-03-09T17:19:07;38.38;;;21.25;;
19691;SDS011;42748;50.016;19.890;2023-03-09T17:21:34;36.33;;;20.50;;
19691;SDS011;42748;50.016;19.890;2023-03-09T17:24:02;37.70;;;19.85;;
19691;SDS011;42748;50.016;19.890;2023-03-09T17:26:29;33.15;;;18.73;;
19691;SDS011;42748;50.016;19.890;2023-03-09T17:33:23;30.98;;;17.23;;
19691;SDS011;42748;50.016;19.890;2023-03-09T17:35:51;30.83;;;16.13;;
19691;SDS011;42748;50.016;19.890;2023-03-09T17:38:19;28.30;;;15.88;;
19691;SDS011;42748;50.016;19.890;2023-03-09T17:40:47;27.83;;;15.40;;
19691;SDS011;42748;50.016;19.890;2023-03-09T17:47:42;30.45;;;16.58;;